Time;durP1;ratioP1;P1;durP2;ratioP2;P2;SDS_P1;SDS_P2;PMS_P1;PMS_P2;Temp;Humidity;BMP_temperature;BMP_pressure;BME280_temperature;BME280_humidity;BME280_pressure;Samples;Min_cycle;Max_cycle;Signal;HPM_P1;HPM_P2
2023/04/29 00:00:16;;;;;;;22.88;15.27;;;;;;;;;;6217169;22;20011;-78
2023/04/29 00:02:42;;;;;;;24.60;15.98;;;;;;;;;;6245165;23;20000;-78
2023/04/29 00:05:08;;;;;;;24.35;15.68;;;;;;;;;;6245537;23;20027;-79
2023/04/29 00:07:33;;;;;;;22.10;14.55;;;;;;;;;;6244245;23;20095;-79
2023/04/29 00:09:59;;;;;;;22.80;15.43;;;;;;;;;;6244378;23;20054;-79
2023/04/29 00:12:25;;;;;;;21.92;14.80;;;;;;;;;;6217512;23;20095;-79
2023/04/29 00:14:50;;;;;;;23.27;14.50;;;;;;;;;;6245554;23;20066;-79
2023/04/29 00:17:16;;;;;;;21.52;14.30;;;;;;;;;;6217339;23;20087;-76
2023/04/29 00:19:42;;;;;;;24.13;15.20;;;;;;;;;;6215433;23;20031;-78
2023/04/29 00:22:08;;;;;;;22.13;14.77;;;;;;;;;;6243233;23;20011;-78
2023/04/29 00:24:33;;;;;;;24.08;15.43;;;;;;;;;;6243920;23;20391;-78
2023/04/29 00:26:58;;;;;;;23.25;16.23;;;;;;;;;;6243491;23;20000;-79
2023/04/29 00:29:24;;;;;;;24.60;15.95;;;;;;;;;;6242687;23;20003;-78
2023/04/29 00:31:49;;;;;;;22.95;15.20;;;;;;;;;;6215460;23;20470;-78
2023/04/29 00:34:15;;;;;;;23.25;15.50;;;;;;;;;;6242554;23;20000;-78
2023/04/29 00:36:40;;;;;;;25.33;15.52;;;;;;;;;;6218375;23;20010;-79
2023/04/29 00:39:06;;;;;;;23.90;15.45;;;;;;;;;;6240677;23;20000;-79
2023/04/29 00:41:32;;;;;;;23.13;15.05;;;;;;;;;;6244294;23;20003;-78
2023/04/29 00:43:57;;;;;;;26.02;15.35;;;;;;;;;;6244651;23;20000;-79
2023/04/29 00:46:23;;;;;;;22.80;15.40;;;;;;;;;;6242279;23;20028;-79
2023/04/29 00:48:48;;;;;;;21.55;13.95;;;;;;;;;;6242272;23;20087;-78
2023/04/29 00:51:16;;;;;;;21.30;13.85;;;;;;;;;;6240092;23;20031;-79
2023/04/29 00:53:42;;;;;;;22.50;14.43;;;;;;;;;;6244783;23;20000;-79
2023/04/29 00:56:07;;;;;;;20.45;13.32;;;;;;;;;;6245788;23;20007;-79
2023/04/29 00:58:34;;;;;;;22.77;14.70;;;;;;;;;;6244274;22;20019;-78
2023/04/29 01:01:00;;;;;;;21.60;13.80;;;;;;;;;;6245568;23;20327;-79
2023/04/29 01:03:27;;;;;;;24.60;13.65;;;;;;;;;;6245097;23;20390;-79
2023/04/29 01:06:02;;;;;;;23.85;14.68;;;;;;;;;;6245721;23;20018;-79
2023/04/29 01:08:48;;;;;;;25.17;15.18;;;;;;;;;;6245534;23;20000;-78
2023/04/29 01:11:17;;;;;;;19.02;12.80;;;;;;;;;;6218487;23;20003;-79
2023/04/29 01:13:50;;;;;;;24.70;13.98;;;;;;;;;;6246174;23;20003;-79
2023/04/29 01:16:25;;;;;;;26.33;14.33;;;;;;;;;;6245372;23;20008;-79
2023/04/29 01:18:57;;;;;;;22.20;14.32;;;;;;;;;;6218223;23;20430;-78
2023/04/29 01:21:24;;;;;;;20.95;12.75;;;;;;;;;;6245241;23;20001;-79
2023/04/29 01:23:55;;;;;;;24.60;13.80;;;;;;;;;;6245180;23;20071;-79
2023/04/29 01:26:21;;;;;;;21.60;12.70;;;;;;;;;;6245140;23;20004;-79
2023/04/29 01:28:53;;;;;;;20.88;12.82;;;;;;;;;;6245209;23;20312;-78
2023/04/29 01:31:35;;;;;;;20.53;12.20;;;;;;;;;;6245096;23;20008;-79
2023/04/29 01:34:11;;;;;;;21.75;12.07;;;;;;;;;;6245510;23;20485;-78
2023/04/29 01:37:14;;;;;;;21.67;12.45;;;;;;;;;;6243923;23;20004;-78
2023/04/29 01:39:52;;;;;;;19.85;11.90;;;;;;;;;;6244466;23;20024;-79
2023/04/29 01:42:55;;;;;;;21.10;12.02;;;;;;;;;;6244690;23;19996;-78
2023/04/29 01:45:21;;;;;;;25.20;13.45;;;;;;;;;;6244485;23;20311;-79
2023/04/29 01:47:49;;;;;;;24.63;12.73;;;;;;;;;;6244716;23;20004;-78
2023/04/29 01:50:15;;;;;;;27.65;14.07;;;;;;;;;;6217614;23;20008;-79
2023/04/29 01:52:40;;;;;;;24.77;14.13;;;;;;;;;;6244188;23;20004;-79
2023/04/29 01:55:06;;;;;;;22.73;13.30;;;;;;;;;;6244282;23;20338;-78
2023/04/29 01:57:31;;;;;;;26.95;13.93;;;;;;;;;;6217140;23;20011;-78
2023/04/29 01:59:57;;;;;;;25.90;12.77;;;;;;;;;;6217408;23;20004;-79
2023/04/29 02:02:24;;;;;;;26.65;14.02;;;;;;;;;;6244366;23;20010;-79
2023/04/29 02:04:49;;;;;;;22.13;12.82;;;;;;;;;;6209497;23;20043;-78
2023/04/29 02:07:15;;;;;;;27.88;14.55;;;;;;;;;;6211396;23;20012;-77
2023/04/29 02:09:40;;;;;;;28.95;14.00;;;;;;;;;;6240247;23;20007;-79
2023/04/29 02:12:06;;;;;;;23.98;13.23;;;;;;;;;;6243792;23;20004;-79
2023/04/29 02:14:33;;;;;;;28.67;13.40;;;;;;;;;;6244915;23;20042;-78
2023/04/29 02:16:58;;;;;;;23.98;13.50;;;;;;;;;;6245879;23;20004;-78
2023/04/29 02:19:24;;;;;;;27.65;13.00;;;;;;;;;;6245968;23;20004;-79
2023/04/29 02:21:49;;;;;;;25.65;13.18;;;;;;;;;;6219548;23;20485;-79
2023/04/29 02:24:15;;;;;;;21.90;12.40;;;;;;;;;;6246229;23;20004;-78
2023/04/29 02:26:40;;;;;;;22.92;11.98;;;;;;;;;;6246633;23;20004;-78
2023/04/29 02:29:05;;;;;;;23.23;12.23;;;;;;;;;;6246202;23;20370;-79
2023/04/29 02:31:31;;;;;;;22.15;11.70;;;;;;;;;;6246440;23;20037;-79
2023/04/29 02:33:56;;;;;;;22.42;12.55;;;;;;;;;;6246364;23;20000;-79
2023/04/29 02:36:23;;;;;;;23.27;12.57;;;;;;;;;;6218574;23;20450;-79
2023/04/29 02:38:49;;;;;;;23.98;11.82;;;;;;;;;;6218637;23;20011;-79
2023/04/29 02:41:17;;;;;;;20.92;12.13;;;;;;;;;;6219866;23;20112;-79
2023/04/29 02:43:43;;;;;;;21.92;11.77;;;;;;;;;;6246445;23;20000;-80
2023/04/29 02:46:08;;;;;;;21.40;12.15;;;;;;;;;;6246477;23;20024;-79
2023/04/29 02:48:34;;;;;;;19.50;11.43;;;;;;;;;;6246500;23;20450;-78
2023/04/29 02:50:59;;;;;;;20.90;11.43;;;;;;;;;;6245236;23;20083;-79
2023/04/29 02:53:24;;;;;;;19.98;11.18;;;;;;;;;;6219371;23;20350;-79
2023/04/29 02:55:50;;;;;;;17.83;11.15;;;;;;;;;;6218466;23;20344;-79
2023/04/29 02:58:15;;;;;;;20.33;11.25;;;;;;;;;;6246175;23;20005;-79
2023/04/29 03:00:41;;;;;;;22.15;11.98;;;;;;;;;;6246721;22;20079;-80
2023/04/29 03:03:06;;;;;;;22.27;11.65;;;;;;;;;;6246226;23;20431;-79
2023/04/29 03:05:31;;;;;;;21.88;12.00;;;;;;;;;;6218426;23;20015;-79
2023/04/29 03:07:57;;;;;;;18.33;11.10;;;;;;;;;;6218802;23;20008;-79
2023/04/29 03:10:22;;;;;;;22.27;11.07;;;;;;;;;;6219891;23;20012;-78
2023/04/29 03:12:47;;;;;;;17.77;10.77;;;;;;;;;;6219319;23;20015;-79
2023/04/29 03:15:14;;;;;;;20.42;11.52;;;;;;;;;;6219489;23;20066;-78
2023/04/29 03:17:39;;;;;;;16.92;10.30;;;;;;;;;;6246256;23;20029;-79
2023/04/29 03:20:06;;;;;;;17.02;10.75;;;;;;;;;;6246604;23;20000;-79
2023/04/29 03:22:32;;;;;;;19.83;10.73;;;;;;;;;;6219174;23;20004;-79
2023/04/29 03:24:57;;;;;;;21.65;10.82;;;;;;;;;;6245884;23;20446;-77
2023/04/29 03:27:22;;;;;;;20.40;11.38;;;;;;;;;;6245196;23;20015;-79
2023/04/29 03:29:48;;;;;;;19.48;10.90;;;;;;;;;;6219752;23;20069;-78
2023/04/29 03:32:13;;;;;;;18.63;10.48;;;;;;;;;;6218674;23;20004;-79
2023/04/29 03:34:39;;;;;;;18.77;10.95;;;;;;;;;;6246042;23;20363;-79
2023/04/29 03:37:04;;;;;;;19.08;10.23;;;;;;;;;;6219254;23;20334;-80
2023/04/29 03:39:31;;;;;;;16.75;10.35;;;;;;;;;;6245626;23;20000;-79
2023/04/29 03:41:58;;;;;;;17.23;9.82;;;;;;;;;;6245792;23;20000;-78
2023/04/29 03:44:23;;;;;;;17.63;9.70;;;;;;;;;;6219699;23;20004;-79
2023/04/29 03:46:49;;;;;;;15.38;9.80;;;;;;;;;;6245313;23;20007;-79
2023/04/29 03:49:14;;;;;;;16.08;10.20;;;;;;;;;;6219129;23;20008;-79
2023/04/29 03:51:40;;;;;;;19.10;10.15;;;;;;;;;;6219061;23;20023;-79
2023/04/29 03:54:06;;;;;;;16.77;10.25;;;;;;;;;;6219029;23;20008;-79
2023/04/29 03:56:31;;;;;;;17.50;9.13;;;;;;;;;;6245852;23;20000;-78
2023/04/29 03:58:57;;;;;;;19.77;9.70;;;;;;;;;;6245446;22;20313;-79
2023/04/29 04:01:22;;;;;;;16.60;10.07;;;;;;;;;;6219189;23;20000;-79
2023/04/29 04:03:47;;;;;;;17.30;10.32;;;;;;;;;;6245690;23;20016;-79
2023/04/29 04:06:13;;;;;;;20.40;10.13;;;;;;;;;;6218375;23;20039;-79
2023/04/29 04:08:39;;;;;;;17.77;10.25;;;;;;;;;;6245680;23;20012;-79
2023/04/29 04:11:05;;;;;;;16.83;9.85;;;;;;;;;;6246175;23;20004;-79
2023/04/29 04:13:31;;;;;;;16.30;9.40;;;;;;;;;;6245201;23;20055;-78
2023/04/29 04:15:57;;;;;;;18.50;10.35;;;;;;;;;;6246029;23;20004;-79
2023/04/29 04:18:23;;;;;;;17.40;10.10;;;;;;;;;;6218878;23;20040;-79
2023/04/29 04:20:48;;;;;;;16.13;10.43;;;;;;;;;;6218661;23;19996;-79
2023/04/29 04:23:14;;;;;;;16.42;9.88;;;;;;;;;;6245627;23;20250;-78
2023/04/29 04:25:48;;;;;;;16.20;9.35;;;;;;;;;;6218136;23;20008;-79
2023/04/29 04:28:14;;;;;;;16.58;9.98;;;;;;;;;;6218551;23;20402;-79
2023/04/29 04:30:41;;;;;;;16.55;9.27;;;;;;;;;;6245929;23;20000;-79
2023/04/29 04:33:07;;;;;;;18.95;10.05;;;;;;;;;;6218013;23;20482;-79
2023/04/29 04:35:32;;;;;;;20.10;10.57;;;;;;;;;;6245931;23;20031;-79
2023/04/29 04:37:58;;;;;;;14.52;9.32;;;;;;;;;;6218615;23;20331;-78
2023/04/29 04:40:23;;;;;;;16.35;8.70;;;;;;;;;;6218337;23;20004;-79
2023/04/29 04:42:48;;;;;;;16.02;9.13;;;;;;;;;;6218545;23;20035;-78
2023/04/29 04:45:14;;;;;;;18.88;10.23;;;;;;;;;;6244827;23;20086;-79
2023/04/29 04:47:40;;;;;;;17.48;10.13;;;;;;;;;;6218699;23;20008;-79
2023/04/29 04:50:07;;;;;;;16.40;9.82;;;;;;;;;;6245013;23;20027;-79
2023/04/29 04:52:32;;;;;;;19.17;10.02;;;;;;;;;;6245145;23;20435;-78
2023/04/29 04:54:57;;;;;;;18.23;9.57;;;;;;;;;;6244652;23;20010;-79
2023/04/29 04:57:23;;;;;;;15.68;9.35;;;;;;;;;;6245191;23;20010;-78
2023/04/29 04:59:48;;;;;;;16.77;9.05;;;;;;;;;;6245558;22;20008;-79
2023/04/29 05:02:13;;;;;;;13.05;8.82;;;;;;;;;;6244756;23;20434;-79
2023/04/29 05:04:39;;;;;;;15.73;10.10;;;;;;;;;;6245106;23;20327;-80
2023/04/29 05:07:04;;;;;;;16.83;9.23;;;;;;;;;;6218202;23;20008;-79
2023/04/29 05:09:30;;;;;;;15.32;8.95;;;;;;;;;;6244862;23;20150;-79
2023/04/29 05:11:55;;;;;;;14.27;8.93;;;;;;;;;;6245075;23;20007;-79
2023/04/29 05:14:20;;;;;;;14.52;9.30;;;;;;;;;;6218278;23;20091;-79
2023/04/29 05:16:46;;;;;;;15.30;9.73;;;;;;;;;;6245097;23;20008;-79
2023/04/29 05:19:11;;;;;;;16.92;10.15;;;;;;;;;;6218017;23;20210;-79
2023/04/29 05:21:37;;;;;;;14.32;8.55;;;;;;;;;;6218216;23;20000;-79
2023/04/29 05:24:02;;;;;;;16.85;9.18;;;;;;;;;;6217858;23;20008;-79
2023/04/29 05:26:27;;;;;;;20.20;9.73;;;;;;;;;;6217455;23;20408;-78
2023/04/29 05:28:54;;;;;;;15.45;9.07;;;;;;;;;;6244772;23;20077;-78
2023/04/29 05:31:19;;;;;;;17.88;10.05;;;;;;;;;;6245116;23;20028;-79
2023/04/29 05:33:45;;;;;;;16.58;9.98;;;;;;;;;;6245717;23;20015;-79
2023/04/29 05:36:10;;;;;;;16.33;9.35;;;;;;;;;;6245011;23;20062;-79
2023/04/29 05:38:35;;;;;;;15.48;9.48;;;;;;;;;;6217739;23;20014;-79
2023/04/29 05:41:02;;;;;;;14.30;9.30;;;;;;;;;;6218706;23;20004;-79
2023/04/29 05:43:28;;;;;;;15.60;10.20;;;;;;;;;;6217485;23;20008;-79
2023/04/29 05:45:53;;;;;;;17.02;10.15;;;;;;;;;;6244743;23;20087;-79
2023/04/29 05:48:18;;;;;;;13.65;8.95;;;;;;;;;;6244885;23;20004;-79
2023/04/29 05:50:44;;;;;;;15.40;9.07;;;;;;;;;;6244284;23;20054;-79
2023/04/29 05:53:10;;;;;;;17.33;10.55;;;;;;;;;;6244955;23;20004;-79
2023/04/29 05:55:35;;;;;;;15.50;8.48;;;;;;;;;;6217892;23;20004;-79
2023/04/29 05:58:00;;;;;;;15.95;9.98;;;;;;;;;;6244179;23;20000;-79
2023/04/29 06:00:26;;;;;;;16.33;10.10;;;;;;;;;;6244711;22;20507;-79
2023/04/29 06:02:51;;;;;;;15.63;9.93;;;;;;;;;;6217728;23;20007;-79
2023/04/29 06:05:17;;;;;;;15.60;9.07;;;;;;;;;;6244518;23;20004;-79
2023/04/29 06:07:43;;;;;;;13.82;9.05;;;;;;;;;;6244696;23;20399;-79
2023/04/29 06:10:09;;;;;;;14.25;8.57;;;;;;;;;;6244442;23;20058;-79
2023/04/29 06:12:35;;;;;;;16.20;10.20;;;;;;;;;;6217282;23;20039;-79
2023/04/29 06:15:00;;;;;;;18.45;10.13;;;;;;;;;;6217618;23;20015;-79
2023/04/29 06:17:28;;;;;;;16.20;9.82;;;;;;;;;;6217875;23;20012;-79
2023/04/29 06:19:53;;;;;;;19.95;10.18;;;;;;;;;;6244553;23;20004;-79
2023/04/29 06:22:19;;;;;;;13.77;9.32;;;;;;;;;;6245274;23;20011;-79
2023/04/29 06:24:44;;;;;;;15.77;9.77;;;;;;;;;;6217144;23;20011;-79
2023/04/29 06:27:10;;;;;;;17.75;10.48;;;;;;;;;;6244389;23;20011;-79
2023/04/29 06:29:36;;;;;;;19.30;10.10;;;;;;;;;;6244243;23;20058;-79
2023/04/29 06:32:01;;;;;;;16.48;10.50;;;;;;;;;;6243833;23;20007;-79
2023/04/29 06:34:26;;;;;;;14.88;9.77;;;;;;;;;;6244784;23;20057;-79
2023/04/29 06:36:52;;;;;;;14.27;9.38;;;;;;;;;;6217262;23;20403;-79
2023/04/29 06:39:17;;;;;;;17.17;10.07;;;;;;;;;;6244589;23;20004;-79
2023/04/29 06:41:42;;;;;;;14.55;9.13;;;;;;;;;;6217630;23;20415;-79
2023/04/29 06:44:08;;;;;;;13.65;9.10;;;;;;;;;;6243028;23;20042;-79
2023/04/29 06:46:33;;;;;;;16.48;9.73;;;;;;;;;;6244963;23;20011;-79
2023/04/29 06:48:58;;;;;;;14.68;9.10;;;;;;;;;;6217675;23;20326;-79
2023/04/29 06:51:24;;;;;;;15.05;10.25;;;;;;;;;;6215686;23;20004;-78
2023/04/29 06:53:49;;;;;;;12.93;9.23;;;;;;;;;;6216150;23;20004;-79
2023/04/29 06:56:15;;;;;;;15.50;9.15;;;;;;;;;;6242707;23;20010;-78
2023/04/29 06:58:40;;;;;;;15.23;9.50;;;;;;;;;;6216127;22;20047;-78
2023/04/29 07:01:07;;;;;;;15.65;9.73;;;;;;;;;;6217787;23;20070;-79
2023/04/29 07:03:32;;;;;;;13.35;9.55;;;;;;;;;;6217689;23;20083;-78
2023/04/29 07:05:58;;;;;;;12.40;9.10;;;;;;;;;;6218218;23;20043;-79
2023/04/29 07:08:23;;;;;;;18.85;9.80;;;;;;;;;;6243626;23;20009;-79
2023/04/29 07:10:56;;;;;;;15.05;9.25;;;;;;;;;;6246333;23;20034;-79
2023/04/29 07:13:21;;;;;;;17.48;10.25;;;;;;;;;;6245841;23;20007;-79
2023/04/29 07:15:47;;;;;;;18.58;10.07;;;;;;;;;;6246025;23;20330;-79
2023/04/29 07:18:12;;;;;;;14.45;9.05;;;;;;;;;;6246884;23;19999;-79
2023/04/29 07:20:38;;;;;;;15.70;9.00;;;;;;;;;;6219777;23;20004;-79
2023/04/29 07:23:03;;;;;;;14.15;8.90;;;;;;;;;;6219713;23;20390;-79
2023/04/29 07:25:29;;;;;;;14.70;9.10;;;;;;;;;;6218768;23;20338;-77
2023/04/29 07:27:55;;;;;;;14.40;9.68;;;;;;;;;;6219759;23;20012;-79
2023/04/29 07:30:21;;;;;;;17.33;9.68;;;;;;;;;;6242902;23;20316;-78
2023/04/29 07:32:46;;;;;;;12.57;8.38;;;;;;;;;;6243807;23;20422;-78
2023/04/29 07:35:11;;;;;;;18.33;9.65;;;;;;;;;;6216559;23;20461;-79
2023/04/29 07:37:37;;;;;;;12.48;9.13;;;;;;;;;;6244589;23;20000;-79
2023/04/29 07:40:02;;;;;;;13.07;8.73;;;;;;;;;;6217615;23;20035;-78
2023/04/29 07:42:28;;;;;;;15.50;8.38;;;;;;;;;;6216442;23;20476;-79
2023/04/29 07:44:53;;;;;;;15.77;9.75;;;;;;;;;;6218717;23;20465;-78
2023/04/29 07:47:18;;;;;;;16.90;9.43;;;;;;;;;;6218290;23;20070;-79
2023/04/29 07:49:44;;;;;;;15.32;8.75;;;;;;;;;;6244776;23;20000;-79
2023/04/29 07:52:09;;;;;;;13.57;9.48;;;;;;;;;;6218998;23;20028;-79
2023/04/29 07:54:35;;;;;;;15.88;9.23;;;;;;;;;;6245143;23;20003;-79
2023/04/29 07:57:02;;;;;;;14.98;9.07;;;;;;;;;;6244577;23;20004;-79
2023/04/29 07:59:28;;;;;;;17.10;9.32;;;;;;;;;;6245425;22;20015;-78
2023/04/29 08:01:53;;;;;;;15.90;8.70;;;;;;;;;;6241842;23;20334;-78
2023/04/29 08:04:18;;;;;;;13.15;8.57;;;;;;;;;;6245756;23;20071;-79
2023/04/29 08:06:44;;;;;;;16.55;8.77;;;;;;;;;;6218954;23;20016;-79
2023/04/29 08:09:10;;;;;;;15.05;8.40;;;;;;;;;;6217719;23;20012;-79
2023/04/29 08:11:35;;;;;;;14.88;9.40;;;;;;;;;;6245012;23;20081;-79
2023/04/29 08:14:01;;;;;;;15.52;8.75;;;;;;;;;;6218131;23;20000;-79
2023/04/29 08:16:26;;;;;;;14.43;9.38;;;;;;;;;;6245572;23;20063;-79
2023/04/29 08:18:53;;;;;;;11.73;8.13;;;;;;;;;;6219068;23;20004;-79
2023/04/29 08:21:19;;;;;;;14.63;8.90;;;;;;;;;;6218525;23;20004;-79
2023/04/29 08:23:44;;;;;;;13.95;8.80;;;;;;;;;;6218668;23;20004;-78
2023/04/29 08:26:11;;;;;;;15.32;8.45;;;;;;;;;;6245894;23;20016;-78
2023/04/29 08:28:38;;;;;;;13.55;8.48;;;;;;;;;;6244432;23;20000;-80
2023/04/29 08:31:06;;;;;;;14.55;8.63;;;;;;;;;;6244566;23;20415;-79
2023/04/29 08:33:31;;;;;;;16.80;9.13;;;;;;;;;;6217906;23;20410;-78
2023/04/29 08:35:59;;;;;;;17.55;8.77;;;;;;;;;;6245178;23;20004;-79
2023/04/29 08:38:24;;;;;;;15.63;9.30;;;;;;;;;;6244433;23;20130;-78
2023/04/29 08:40:49;;;;;;;16.38;9.43;;;;;;;;;;6247412;23;20095;-79
2023/04/29 08:43:15;;;;;;;16.90;9.07;;;;;;;;;;6244520;23;20008;-78
2023/04/29 08:45:42;;;;;;;14.82;8.85;;;;;;;;;;6216611;23;20031;-79
2023/04/29 08:48:08;;;;;;;13.45;8.48;;;;;;;;;;6243903;23;20004;-79
2023/04/29 08:50:40;;;;;;;14.85;8.73;;;;;;;;;;6217207;23;20082;-79
2023/04/29 08:53:08;;;;;;;13.93;8.95;;;;;;;;;;6216522;23;20465;-79
2023/04/29 08:55:35;;;;;;;13.38;8.80;;;;;;;;;;6242488;23;20031;-79
2023/04/29 08:58:01;;;;;;;13.02;9.32;;;;;;;;;;6244257;23;20053;-78
2023/04/29 09:00:27;;;;;;;16.83;9.05;;;;;;;;;;6243935;22;20015;-78
2023/04/29 09:02:54;;;;;;;13.63;9.07;;;;;;;;;;6243434;23;20003;-79
2023/04/29 09:05:20;;;;;;;13.27;8.60;;;;;;;;;;6242016;23;20004;-79
2023/04/29 09:07:47;;;;;;;14.30;8.95;;;;;;;;;;6240041;23;20056;-79
2023/04/29 09:10:13;;;;;;;17.35;9.30;;;;;;;;;;6240423;23;20004;-78
2023/04/29 09:12:39;;;;;;;18.08;9.43;;;;;;;;;;6212845;23;20387;-79
2023/04/29 09:15:05;;;;;;;14.30;8.88;;;;;;;;;;6216641;23;20035;-79
2023/04/29 09:17:47;;;;;;;13.38;8.25;;;;;;;;;;6242052;23;20008;-79
2023/04/29 09:20:18;;;;;;;13.10;8.45;;;;;;;;;;6216568;23;20442;-79
2023/04/29 09:22:52;;;;;;;13.50;8.32;;;;;;;;;;6232685;23;20383;-77
2023/04/29 09:25:18;;;;;;;13.68;7.88;;;;;;;;;;6258932;23;20000;-77
2023/04/29 09:27:43;;;;;;;12.13;8.05;;;;;;;;;;6231021;23;20035;-78
2023/04/29 09:30:12;;;;;;;13.35;8.07;;;;;;;;;;6257197;23;20011;-76
2023/04/29 09:32:38;;;;;;;13.63;8.27;;;;;;;;;;6227918;23;20004;-77
2023/04/29 09:35:26;;;;;;;13.43;8.43;;;;;;;;;;6254956;23;20451;-77
2023/04/29 09:37:53;;;;;;;14.10;8.23;;;;;;;;;;6256210;23;20489;-78
2023/04/29 09:40:31;;;;;;;13.77;8.10;;;;;;;;;;6257875;23;20011;-77
2023/04/29 09:42:57;;;;;;;15.60;8.75;;;;;;;;;;6232143;23;20032;-76
2023/04/29 09:45:37;;;;;;;13.88;8.40;;;;;;;;;;6256868;23;20077;-78
2023/04/29 09:48:04;;;;;;;13.10;7.75;;;;;;;;;;6230298;23;20008;-77
2023/04/29 09:50:31;;;;;;;12.77;7.55;;;;;;;;;;6230037;23;20378;-78
2023/04/29 09:52:57;;;;;;;11.05;7.32;;;;;;;;;;6261086;23;20019;-76
2023/04/29 09:55:22;;;;;;;10.95;6.80;;;;;;;;;;6236656;23;20095;-78
2023/04/29 09:57:47;;;;;;;12.48;7.13;;;;;;;;;;6234935;23;20030;-77
2023/04/29 10:00:14;;;;;;;11.05;7.45;;;;;;;;;;6234967;23;20012;-77
2023/04/29 10:02:48;;;;;;;11.60;7.38;;;;;;;;;;6234297;23;20015;-78
2023/04/29 10:05:15;;;;;;;11.43;6.85;;;;;;;;;;6263487;23;20000;-77
2023/04/29 10:07:41;;;;;;;12.13;7.40;;;;;;;;;;6266420;23;20054;-77
2023/04/29 10:10:09;;;;;;;11.32;7.47;;;;;;;;;;6264300;23;20004;-77
2023/04/29 10:12:36;;;;;;;12.20;7.35;;;;;;;;;;6262349;23;20007;-77
2023/04/29 10:15:27;;;;;;;11.40;6.65;;;;;;;;;;6248175;23;20063;-77
2023/04/29 10:18:11;;;;;;;11.48;6.38;;;;;;;;;;6261198;23;20083;-76
2023/04/29 10:20:44;;;;;;;11.73;7.50;;;;;;;;;;6262901;23;19996;-76
2023/04/29 10:23:09;;;;;;;;;;;;;;;;;;6264336;23;20004;-77
2023/04/29 10:25:36;;;;;;;10.48;6.95;;;;;;;;;;6235837;23;19917;-77
2023/04/29 10:28:03;;;;;;;10.23;7.00;;;;;;;;;;6232988;23;20008;-76
2023/04/29 10:30:29;;;;;;;11.27;6.72;;;;;;;;;;6262652;23;20015;-77
2023/04/29 10:32:55;;;;;;;11.43;6.93;;;;;;;;;;6210707;23;20015;-78
2023/04/29 10:35:24;;;;;;;11.23;6.22;;;;;;;;;;6232443;23;20004;-77
2023/04/29 10:37:50;;;;;;;11.50;6.38;;;;;;;;;;6259601;23;20026;-78
2023/04/29 10:40:17;;;;;;;8.60;5.28;;;;;;;;;;6233712;23;20027;-78
2023/04/29 10:42:44;;;;;;;7.55;5.53;;;;;;;;;;6254681;23;20000;-77
2023/04/29 10:45:26;;;;;;;8.90;5.40;;;;;;;;;;6222136;23;20462;-76
2023/04/29 10:48:00;;;;;;;8.40;5.43;;;;;;;;;;6226208;23;20015;-76
2023/04/29 10:50:30;;;;;;;8.45;5.57;;;;;;;;;;6250389;23;20008;-77
2023/04/29 10:52:56;;;;;;;8.25;4.72;;;;;;;;;;6252816;23;20012;-76
2023/04/29 10:55:25;;;;;;;7.97;5.30;;;;;;;;;;6222683;23;20016;-75
2023/04/29 10:57:57;;;;;;;7.20;5.10;;;;;;;;;;6224532;23;20514;-77
2023/04/29 11:00:27;;;;;;;7.55;5.13;;;;;;;;;;6255032;22;20035;-76
2023/04/29 11:02:53;;;;;;;7.43;4.95;;;;;;;;;;6224145;23;20028;-75
2023/04/29 11:05:32;;;;;;;8.13;5.57;;;;;;;;;;6250612;23;20073;-76
2023/04/29 11:08:22;;;;;;;8.50;5.55;;;;;;;;;;6251590;23;20110;-75
2023/04/29 11:10:51;;;;;;;9.80;5.65;;;;;;;;;;6249154;23;20489;-77
2023/04/29 11:13:44;;;;;;;11.68;5.45;;;;;;;;;;6222083;23;20012;-76
2023/04/29 11:16:11;;;;;;;6.60;5.00;;;;;;;;;;6239282;23;20034;-78
2023/04/29 11:19:03;;;;;;;9.13;5.13;;;;;;;;;;6249125;23;20153;-77
2023/04/29 11:21:29;;;;;;;7.90;5.50;;;;;;;;;;6224004;23;20027;-76
2023/04/29 11:23:56;;;;;;;10.10;6.00;;;;;;;;;;6248977;23;20301;-76
2023/04/29 11:26:22;;;;;;;7.53;5.03;;;;;;;;;;6251122;23;20012;-77
2023/04/29 11:28:51;;;;;;;9.18;5.38;;;;;;;;;;6224351;23;20019;-76
2023/04/29 11:31:16;;;;;;;11.10;5.97;;;;;;;;;;6220140;23;20399;-76
2023/04/29 11:33:42;;;;;;;9.40;6.03;;;;;;;;;;6250621;23;20007;-76
2023/04/29 11:36:09;;;;;;;8.27;5.35;;;;;;;;;;6247671;23;20012;-77
2023/04/29 11:38:38;;;;;;;8.70;5.78;;;;;;;;;;6242172;23;20363;-79
2023/04/29 11:41:04;;;;;;;7.97;5.38;;;;;;;;;;6202275;23;20416;-77
2023/04/29 11:43:29;;;;;;;8.35;5.05;;;;;;;;;;6232954;23;20016;-79
2023/04/29 11:45:55;;;;;;;7.95;5.00;;;;;;;;;;6236630;23;20012;-79
2023/04/29 11:48:23;;;;;;;8.60;5.40;;;;;;;;;;6209474;23;20015;-78
2023/04/29 11:50:51;;;;;;;9.25;5.22;;;;;;;;;;6210117;23;20503;-79
2023/04/29 11:53:20;;;;;;;9.27;5.50;;;;;;;;;;6209832;23;20000;-79
2023/04/29 11:55:47;;;;;;;8.55;6.10;;;;;;;;;;6209331;23;20016;-79
2023/04/29 11:58:15;;;;;;;9.45;5.22;;;;;;;;;;6236638;23;20034;-79
2023/04/29 12:00:40;;;;;;;8.27;5.10;;;;;;;;;;6237320;22;20083;-77
2023/04/29 12:03:17;;;;;;;9.05;5.35;;;;;;;;;;6236175;23;20062;-80
2023/04/29 12:05:55;;;;;;;8.98;5.10;;;;;;;;;;6237437;23;20012;-79
2023/04/29 12:08:21;;;;;;;7.90;5.28;;;;;;;;;;6236985;23;20016;-78
2023/04/29 12:10:47;;;;;;;9.75;5.05;;;;;;;;;;6209208;23;20004;-79
2023/04/29 12:13:13;;;;;;;7.47;4.90;;;;;;;;;;6236622;23;20060;-79
2023/04/29 12:15:39;;;;;;;9.05;5.07;;;;;;;;;;6236687;23;20079;-76
2023/04/29 12:18:04;;;;;;;7.53;4.65;;;;;;;;;;6237190;23;20372;-79
2023/04/29 12:20:30;;;;;;;9.82;5.18;;;;;;;;;;6235400;23;20003;-79
2023/04/29 12:22:58;;;;;;;8.50;4.78;;;;;;;;;;6236308;23;20083;-76
2023/04/29 12:25:29;;;;;;;8.15;4.80;;;;;;;;;;6209927;23;20396;-79
2023/04/29 12:27:58;;;;;;;7.47;5.05;;;;;;;;;;6236158;23;20540;-79
2023/04/29 12:30:24;;;;;;;11.18;5.43;;;;;;;;;;6208735;23;20012;-80
2023/04/29 12:32:51;;;;;;;9.00;5.25;;;;;;;;;;6234126;23;20453;-79
2023/04/29 12:35:16;;;;;;;7.53;5.00;;;;;;;;;;6236332;23;20035;-78
2023/04/29 12:37:42;;;;;;;6.65;4.60;;;;;;;;;;6236471;23;20019;-79
2023/04/29 12:40:14;;;;;;;7.45;4.97;;;;;;;;;;6236017;23;20011;-79
2023/04/29 12:42:40;;;;;;;6.97;4.55;;;;;;;;;;6208060;23;20058;-79
2023/04/29 12:45:06;;;;;;;7.30;5.07;;;;;;;;;;6208536;23;20012;-79
2023/04/29 12:47:35;;;;;;;9.43;5.65;;;;;;;;;;6208852;23;20015;-80
2023/04/29 12:50:01;;;;;;;9.95;5.53;;;;;;;;;;6208785;23;20016;-79
2023/04/29 12:52:27;;;;;;;7.53;4.70;;;;;;;;;;6234827;23;20011;-77
2023/04/29 12:54:52;;;;;;;7.45;4.63;;;;;;;;;;6237285;23;20011;-80
2023/04/29 12:57:17;;;;;;;8.57;5.05;;;;;;;;;;6235793;23;20394;-80
2023/04/29 12:59:43;;;;;;;8.02;4.63;;;;;;;;;;6236535;22;20039;-78
2023/04/29 13:02:08;;;;;;;7.30;4.68;;;;;;;;;;6207722;23;20008;-77
2023/04/29 13:04:34;;;;;;;7.65;4.82;;;;;;;;;;6207308;23;20620;-80
2023/04/29 13:06:59;;;;;;;9.15;4.07;;;;;;;;;;6208453;23;20004;-77
2023/04/29 13:09:29;;;;;;;6.80;4.60;;;;;;;;;;6236775;23;20081;-80
2023/04/29 13:11:54;;;;;;;7.70;4.57;;;;;;;;;;6209759;23;20043;-79
2023/04/29 13:14:21;;;;;;;7.57;4.50;;;;;;;;;;6236111;23;20004;-77
2023/04/29 13:16:46;;;;;;;9.02;4.53;;;;;;;;;;6210367;23;20014;-79
2023/04/29 13:19:11;;;;;;;7.68;4.80;;;;;;;;;;6209158;23;20004;-80
2023/04/29 13:21:40;;;;;;;6.60;4.20;;;;;;;;;;6235914;23;20438;-79
2023/04/29 13:24:06;;;;;;;6.15;4.20;;;;;;;;;;6210188;23;20018;-79
2023/04/29 13:26:31;;;;;;;6.63;4.15;;;;;;;;;;6235948;23;20438;-79
2023/04/29 13:28:57;;;;;;;6.45;4.55;;;;;;;;;;6209038;23;20015;-80
2023/04/29 13:31:22;;;;;;;7.05;4.28;;;;;;;;;;6236603;23;20004;-80
2023/04/29 13:33:47;;;;;;;7.45;4.47;;;;;;;;;;6236096;23;20004;-79
2023/04/29 13:36:13;;;;;;;6.25;4.20;;;;;;;;;;6236411;23;20198;-78
2023/04/29 13:38:39;;;;;;;12.07;5.05;;;;;;;;;;6236607;23;20473;-79
2023/04/29 13:41:05;;;;;;;8.18;4.70;;;;;;;;;;6234942;23;20289;-80
2023/04/29 13:43:30;;;;;;;6.68;4.38;;;;;;;;;;6233265;23;20011;-78
2023/04/29 13:45:56;;;;;;;6.53;4.10;;;;;;;;;;6209052;23;20389;-80
2023/04/29 13:48:22;;;;;;;6.40;4.22;;;;;;;;;;6208599;23;20003;-80
2023/04/29 13:50:47;;;;;;;8.18;4.55;;;;;;;;;;6234990;23;20032;-80
2023/04/29 13:53:13;;;;;;;6.25;4.22;;;;;;;;;;6235750;23;20328;-79
2023/04/29 13:55:38;;;;;;;6.93;4.07;;;;;;;;;;6234992;23;20008;-80
2023/04/29 13:58:04;;;;;;;6.93;4.30;;;;;;;;;;6209097;23;20316;-79
2023/04/29 14:00:29;;;;;;;6.28;4.32;;;;;;;;;;6209767;22;20008;-77
2023/04/29 14:02:54;;;;;;;7.20;3.65;;;;;;;;;;6207387;23;20004;-79
2023/04/29 14:05:20;;;;;;;6.05;3.67;;;;;;;;;;6207070;23;20008;-79
2023/04/29 14:07:45;;;;;;;6.38;4.18;;;;;;;;;;6235980;23;20012;-79
2023/04/29 14:10:11;;;;;;;7.25;4.40;;;;;;;;;;6207636;23;20035;-79
2023/04/29 14:12:36;;;;;;;6.38;3.72;;;;;;;;;;6207220;23;20004;-77
2023/04/29 14:15:01;;;;;;;6.00;4.10;;;;;;;;;;6236745;23;20012;-80
2023/04/29 14:17:27;;;;;;;5.97;3.92;;;;;;;;;;6235768;23;20004;-80
2023/04/29 14:19:52;;;;;;;7.55;3.92;;;;;;;;;;6208288;23;20091;-77
2023/04/29 14:22:17;;;;;;;7.15;3.88;;;;;;;;;;6210414;23;20007;-79
2023/04/29 14:24:43;;;;;;;8.63;4.25;;;;;;;;;;6180763;23;20012;-77
2023/04/29 14:27:10;;;;;;;5.95;3.72;;;;;;;;;;6204399;23;20043;-77